Main page
METAR-TAF:

METAR-TAF

Airports :

RAF Lossiemouth

Lossiemouth, Scotland

latitude: 57-43N, longitude: 003-19W, elevation: 13 m

Current weather observation

The report was made 48 minutes ago, at 19:50 UTC
Wind 13 kt from the West/Northwest
Temperature 13°C
Humidity 62%
Pressure 1028 hPa
Visibility 10 km or more
Few clouds at a height of 4000 ft
Scattered clouds at a height of 11000 ft

METAR: EGQS 221950Z 29013KT 9999 FEW040 SCT110 13/06 Q1028 BLU

Time: 21:38 (20:38 UTC)

Forecast

The report was made 1 hour and 7 minutes ago, at 19:31 UTC
Forecast valid from 22 at 21 UTC to 23 at 15 UTC
Wind 14 kt from the West
Visibility 10 km or more
Scattered clouds at a height of 4000 ft
Probability 30% :
Temporary
from 22 at 21 UTC to 23 at 08 UTC
Scattered clouds at a height of 2200 ft

TAF: EGQS 221931Z 2221/2315 28014KT 9999 SCT040 PROB30 TEMPO 2221/2308 SCT022

Weather observations and forecasts of more than 4000 airports (METAR and TAF reports).

The available stations are represented by yellow and red dots on the map.

Hover mouse over dot to see the name of the station.

Then click to see weather observations and forecasts.

To change the map : click on the green buttons with a black cross to zoom in, on the green button with a dash to zoom out, or on the green arrows for adjacent maps.


METAR-TAF: